sensor_id;sensor_type;location;lat;lon;timestamp;P1;durP1;ratioP1;P2;durP2;ratioP2
20002;SDS011;10162;41.600;23.806;2023-07-20T00:00:31;10.87;;;8.70;;
20002;SDS011;10162;41.600;23.806;2023-07-20T00:03:12;11.17;;;8.97;;
20002;SDS011;10162;41.600;23.806;2023-07-20T00:05:57;13.97;;;8.50;;
20002;SDS011;10162;41.600;23.806;2023-07-20T00:08:24;11.53;;;8.60;;
20002;SDS011;10162;41.600;23.806;2023-07-20T00:10:50;9.33;;;8.33;;
20002;SDS011;10162;41.600;23.806;2023-07-20T00:13:18;11.00;;;8.60;;
20002;SDS011;10162;41.600;23.806;2023-07-20T00:15:48;10.33;;;8.33;;
20002;SDS011;10162;41.600;23.806;2023-07-20T00:18:14;10.27;;;8.30;;
20002;SDS011;10162;41.600;23.806;2023-07-20T00:20:40;10.90;;;8.33;;
20002;SDS011;10162;41.600;23.806;2023-07-20T00:23:07;10.67;;;8.73;;
20002;SDS011;10162;41.600;23.806;2023-07-20T00:28:39;13.87;;;8.40;;
20002;SDS011;10162;41.600;23.806;2023-07-20T00:31:05;9.27;;;8.23;;
20002;SDS011;10162;41.600;23.806;2023-07-20T00:33:31;12.53;;;7.73;;
20002;SDS011;10162;41.600;23.806;2023-07-20T00:39:02;10.10;;;8.23;;
20002;SDS011;10162;41.600;23.806;2023-07-20T00:41:28;12.87;;;8.83;;
20002;SDS011;10162;41.600;23.806;2023-07-20T00:43:55;10.93;;;8.47;;
20002;SDS011;10162;41.600;23.806;2023-07-20T00:46:22;10.60;;;8.93;;
20002;SDS011;10162;41.600;23.806;2023-07-20T00:48:49;11.60;;;8.70;;
20002;SDS011;10162;41.600;23.806;2023-07-20T00:51:16;12.83;;;8.70;;
20002;SDS011;10162;41.600;23.806;2023-07-20T00:53:42;11.13;;;8.37;;
20002;SDS011;10162;41.600;23.806;2023-07-20T00:58:59;10.80;;;8.50;;
20002;SDS011;10162;41.600;23.806;2023-07-20T01:01:27;10.50;;;9.13;;
20002;SDS011;10162;41.600;23.806;2023-07-20T01:03:53;12.00;;;9.13;;
20002;SDS011;10162;41.600;23.806;2023-07-20T01:06:29;11.10;;;9.40;;
20002;SDS011;10162;41.600;23.806;2023-07-20T01:09:08;12.37;;;8.73;;
20002;SDS011;10162;41.600;23.806;2023-07-20T01:11:43;12.30;;;9.13;;
20002;SDS011;10162;41.600;23.806;2023-07-20T01:18:06;10.17;;;8.90;;
20002;SDS011;10162;41.600;23.806;2023-07-20T01:20:33;11.10;;;8.33;;
20002;SDS011;10162;41.600;23.806;2023-07-20T01:31:47;10.87;;;9.47;;
20002;SDS011;10162;41.600;23.806;2023-07-20T01:34:36;11.00;;;8.73;;
20002;SDS011;10162;41.600;23.806;2023-07-20T01:37:06;10.97;;;8.70;;
20002;SDS011;10162;41.600;23.806;2023-07-20T01:39:32;10.53;;;8.73;;
20002;SDS011;10162;41.600;23.806;2023-07-20T01:42:00;12.93;;;8.53;;
20002;SDS011;10162;41.600;23.806;2023-07-20T01:44:27;9.30;;;8.13;;
20002;SDS011;10162;41.600;23.806;2023-07-20T01:46:55;10.83;;;7.90;;
20002;SDS011;10162;41.600;23.806;2023-07-20T01:49:20;10.30;;;8.80;;
20002;SDS011;10162;41.600;23.806;2023-07-20T01:51:46;9.23;;;8.07;;
20002;SDS011;10162;41.600;23.806;2023-07-20T01:54:12;11.03;;;8.37;;
20002;SDS011;10162;41.600;23.806;2023-07-20T01:56:40;9.50;;;8.50;;
20002;SDS011;10162;41.600;23.806;2023-07-20T01:59:06;10.70;;;8.97;;
20002;SDS011;10162;41.600;23.806;2023-07-20T02:01:32;10.30;;;8.97;;
20002;SDS011;10162;41.600;23.806;2023-07-20T02:03:58;10.10;;;9.00;;
20002;SDS011;10162;41.600;23.806;2023-07-20T02:10:24;12.37;;;9.63;;
20002;SDS011;10162;41.600;23.806;2023-07-20T02:12:49;11.33;;;8.97;;
20002;SDS011;10162;41.600;23.806;2023-07-20T02:15:16;11.10;;;9.90;;
20002;SDS011;10162;41.600;23.806;2023-07-20T02:17:44;12.43;;;9.37;;
20002;SDS011;10162;41.600;23.806;2023-07-20T02:20:10;11.47;;;10.03;;
20002;SDS011;10162;41.600;23.806;2023-07-20T02:22:37;13.50;;;9.37;;
20002;SDS011;10162;41.600;23.806;2023-07-20T02:28:07;11.20;;;9.20;;
20002;SDS011;10162;41.600;23.806;2023-07-20T02:30:36;11.33;;;9.30;;
20002;SDS011;10162;41.600;23.806;2023-07-20T02:33:06;10.67;;;8.93;;
20002;SDS011;10162;41.600;23.806;2023-07-20T02:38:24;12.63;;;9.57;;
20002;SDS011;10162;41.600;23.806;2023-07-20T02:40:50;12.13;;;9.87;;
20002;SDS011;10162;41.600;23.806;2023-07-20T02:43:17;12.63;;;9.47;;
20002;SDS011;10162;41.600;23.806;2023-07-20T02:48:49;11.70;;;9.47;;
20002;SDS011;10162;41.600;23.806;2023-07-20T02:51:15;11.50;;;9.20;;
20002;SDS011;10162;41.600;23.806;2023-07-20T02:53:41;12.10;;;9.63;;
20002;SDS011;10162;41.600;23.806;2023-07-20T02:59:15;13.03;;;9.10;;
20002;SDS011;10162;41.600;23.806;2023-07-20T03:01:40;11.17;;;8.73;;
20002;SDS011;10162;41.600;23.806;2023-07-20T03:04:08;10.47;;;9.07;;
20002;SDS011;10162;41.600;23.806;2023-07-20T03:06:35;15.53;;;9.47;;
20002;SDS011;10162;41.600;23.806;2023-07-20T03:09:05;11.30;;;9.37;;
20002;SDS011;10162;41.600;23.806;2023-07-20T03:11:32;11.93;;;8.67;;
20002;SDS011;10162;41.600;23.806;2023-07-20T03:14:00;12.00;;;9.20;;
20002;SDS011;10162;41.600;23.806;2023-07-20T03:19:17;12.57;;;9.37;;
20002;SDS011;10162;41.600;23.806;2023-07-20T03:21:43;11.03;;;9.43;;
20002;SDS011;10162;41.600;23.806;2023-07-20T03:24:09;10.17;;;8.90;;
20002;SDS011;10162;41.600;23.806;2023-07-20T03:26:36;11.27;;;9.57;;
20002;SDS011;10162;41.600;23.806;2023-07-20T03:29:02;11.77;;;9.90;;
20002;SDS011;10162;41.600;23.806;2023-07-20T03:31:29;9.90;;;8.80;;
20002;SDS011;10162;41.600;23.806;2023-07-20T03:33:55;12.03;;;8.90;;
20002;SDS011;10162;41.600;23.806;2023-07-20T03:36:33;10.73;;;9.20;;
20002;SDS011;10162;41.600;23.806;2023-07-20T03:38:58;12.80;;;10.40;;
20002;SDS011;10162;41.600;23.806;2023-07-20T03:41:24;10.43;;;9.27;;
20002;SDS011;10162;41.600;23.806;2023-07-20T03:43:52;11.53;;;9.20;;
20002;SDS011;10162;41.600;23.806;2023-07-20T03:49:07;11.30;;;9.90;;
20002;SDS011;10162;41.600;23.806;2023-07-20T03:51:34;10.90;;;9.37;;
20002;SDS011;10162;41.600;23.806;2023-07-20T03:54:01;10.70;;;9.07;;
20002;SDS011;10162;41.600;23.806;2023-07-20T03:56:30;10.40;;;9.33;;
20002;SDS011;10162;41.600;23.806;2023-07-20T03:59:00;34.13;;;10.40;;
20002;SDS011;10162;41.600;23.806;2023-07-20T04:01:27;10.47;;;9.37;;
20002;SDS011;10162;41.600;23.806;2023-07-20T04:03:53;12.53;;;10.03;;
20002;SDS011;10162;41.600;23.806;2023-07-20T04:10:13;11.80;;;9.60;;
20002;SDS011;10162;41.600;23.806;2023-07-20T04:12:39;22.80;;;10.23;;
20002;SDS011;10162;41.600;23.806;2023-07-20T04:23:20;10.73;;;9.63;;
20002;SDS011;10162;41.600;23.806;2023-07-20T04:27:33;11.70;;;10.07;;
20002;SDS011;10162;41.600;23.806;2023-07-20T04:38:23;15.73;;;10.93;;
20002;SDS011;10162;41.600;23.806;2023-07-20T04:45:10;14.87;;;11.47;;
20002;SDS011;10162;41.600;23.806;2023-07-20T04:47:37;13.53;;;10.70;;
20002;SDS011;10162;41.600;23.806;2023-07-20T04:50:03;15.80;;;11.10;;
20002;SDS011;10162;41.600;23.806;2023-07-20T04:52:30;14.40;;;10.80;;
20002;SDS011;10162;41.600;23.806;2023-07-20T04:57:27;13.45;;;10.20;;
20002;SDS011;10162;41.600;23.806;2023-07-20T04:59:53;12.88;;;10.20;;
20002;SDS011;10162;41.600;23.806;2023-07-20T05:02:20;14.07;;;9.73;;
20002;SDS011;10162;41.600;23.806;2023-07-20T05:04:58;11.90;;;9.77;;
20002;SDS011;10162;41.600;23.806;2023-07-20T05:07:26;11.40;;;10.02;;
20002;SDS011;10162;41.600;23.806;2023-07-20T05:09:52;11.23;;;10.00;;
20002;SDS011;10162;41.600;23.806;2023-07-20T05:12:18;11.73;;;10.27;;
20002;SDS011;10162;41.600;23.806;2023-07-20T05:17:32;17.17;;;12.05;;
20002;SDS011;10162;41.600;23.806;2023-07-20T05:19:58;15.07;;;12.13;;
20002;SDS011;10162;41.600;23.806;2023-07-20T05:22:24;18.65;;;14.15;;
20002;SDS011;10162;41.600;23.806;2023-07-20T05:27:19;15.70;;;11.82;;
20002;SDS011;10162;41.600;23.806;2023-07-20T05:29:45;15.77;;;11.50;;
20002;SDS011;10162;41.600;23.806;2023-07-20T05:32:12;13.98;;;11.38;;
20002;SDS011;10162;41.600;23.806;2023-07-20T05:37:44;16.30;;;11.05;;
20002;SDS011;10162;41.600;23.806;2023-07-20T05:40:10;13.80;;;11.02;;
20002;SDS011;10162;41.600;23.806;2023-07-20T05:42:40;14.15;;;12.13;;
20002;SDS011;10162;41.600;23.806;2023-07-20T05:48:25;16.38;;;11.10;;
20002;SDS011;10162;41.600;23.806;2023-07-20T05:50:51;13.68;;;10.88;;
20002;SDS011;10162;41.600;23.806;2023-07-20T05:53:18;16.05;;;11.75;;
20002;SDS011;10162;41.600;23.806;2023-07-20T05:55:51;12.90;;;11.05;;
20002;SDS011;10162;41.600;23.806;2023-07-20T05:58:18;13.27;;;11.70;;
20002;SDS011;10162;41.600;23.806;2023-07-20T06:00:44;13.68;;;12.25;;
20002;SDS011;10162;41.600;23.806;2023-07-20T06:03:13;15.43;;;11.20;;
20002;SDS011;10162;41.600;23.806;2023-07-20T06:05:41;12.80;;;11.45;;
20002;SDS011;10162;41.600;23.806;2023-07-20T06:25:37;13.65;;;11.23;;
20002;SDS011;10162;41.600;23.806;2023-07-20T06:31:58;14.70;;;11.07;;
20002;SDS011;10162;41.600;23.806;2023-07-20T06:34:24;12.02;;;10.00;;
20002;SDS011;10162;41.600;23.806;2023-07-20T06:40:47;11.50;;;10.35;;
20002;SDS011;10162;41.600;23.806;2023-07-20T06:43:13;10.82;;;9.48;;
20002;SDS011;10162;41.600;23.806;2023-07-20T06:45:39;13.00;;;10.50;;
20002;SDS011;10162;41.600;23.806;2023-07-20T06:52:00;12.02;;;10.80;;
20002;SDS011;10162;41.600;23.806;2023-07-20T06:54:26;11.70;;;10.52;;
20002;SDS011;10162;41.600;23.806;2023-07-20T07:00:45;12.07;;;10.88;;
20002;SDS011;10162;41.600;23.806;2023-07-20T07:03:11;12.55;;;10.95;;
20002;SDS011;10162;41.600;23.806;2023-07-20T07:05:37;12.60;;;10.73;;
20002;SDS011;10162;41.600;23.806;2023-07-20T07:11:57;12.65;;;10.35;;
20002;SDS011;10162;41.600;23.806;2023-07-20T07:14:23;11.38;;;10.27;;
20002;SDS011;10162;41.600;23.806;2023-07-20T07:20:49;11.52;;;10.43;;
20002;SDS011;10162;41.600;23.806;2023-07-20T07:23:16;15.50;;;11.30;;
20002;SDS011;10162;41.600;23.806;2023-07-20T07:25:43;12.43;;;10.88;;
20002;SDS011;10162;41.600;23.806;2023-07-20T07:32:04;16.40;;;11.95;;
20002;SDS011;10162;41.600;23.806;2023-07-20T07:34:30;13.77;;;11.57;;
20002;SDS011;10162;41.600;23.806;2023-07-20T07:40:53;14.90;;;12.73;;
20002;SDS011;10162;41.600;23.806;2023-07-20T07:43:19;17.00;;;12.75;;
20002;SDS011;10162;41.600;23.806;2023-07-20T07:45:45;14.65;;;11.40;;
20002;SDS011;10162;41.600;23.806;2023-07-20T07:48:15;17.20;;;12.25;;
20002;SDS011;10162;41.600;23.806;2023-07-20T07:50:53;12.82;;;11.43;;
20002;SDS011;10162;41.600;23.806;2023-07-20T07:53:23;17.42;;;11.98;;
20002;SDS011;10162;41.600;23.806;2023-07-20T07:55:51;13.50;;;12.20;;
20002;SDS011;10162;41.600;23.806;2023-07-20T07:58:18;12.85;;;11.55;;
20002;SDS011;10162;41.600;23.806;2023-07-20T08:00:44;12.43;;;11.23;;
20002;SDS011;10162;41.600;23.806;2023-07-20T08:03:10;12.65;;;11.35;;
20002;SDS011;10162;41.600;23.806;2023-07-20T08:05:36;11.88;;;10.65;;
20002;SDS011;10162;41.600;23.806;2023-07-20T08:08:08;15.23;;;10.88;;
20002;SDS011;10162;41.600;23.806;2023-07-20T08:10:35;11.13;;;9.95;;
20002;SDS011;10162;41.600;23.806;2023-07-20T08:13:00;11.02;;;9.93;;
20002;SDS011;10162;41.600;23.806;2023-07-20T08:15:26;10.52;;;9.43;;
20002;SDS011;10162;41.600;23.806;2023-07-20T08:17:52;9.95;;;8.98;;
20002;SDS011;10162;41.600;23.806;2023-07-20T08:20:19;10.15;;;9.07;;
20002;SDS011;10162;41.600;23.806;2023-07-20T08:22:47;10.45;;;9.45;;
20002;SDS011;10162;41.600;23.806;2023-07-20T08:25:13;8.90;;;8.13;;
20002;SDS011;10162;41.600;23.806;2023-07-20T08:27:40;9.82;;;8.75;;
20002;SDS011;10162;41.600;23.806;2023-07-20T08:30:06;10.43;;;9.27;;
20002;SDS011;10162;41.600;23.806;2023-07-20T08:32:34;13.50;;;9.80;;
20002;SDS011;10162;41.600;23.806;2023-07-20T08:35:03;10.02;;;9.07;;
20002;SDS011;10162;41.600;23.806;2023-07-20T08:37:31;12.05;;;9.98;;
20002;SDS011;10162;41.600;23.806;2023-07-20T08:39:57;10.52;;;9.55;;
20002;SDS011;10162;41.600;23.806;2023-07-20T08:42:23;9.80;;;8.90;;
20002;SDS011;10162;41.600;23.806;2023-07-20T08:44:49;11.05;;;9.95;;
20002;SDS011;10162;41.600;23.806;2023-07-20T08:47:19;9.77;;;8.90;;
20002;SDS011;10162;41.600;23.806;2023-07-20T08:49:48;11.48;;;9.65;;
20002;SDS011;10162;41.600;23.806;2023-07-20T08:52:14;11.82;;;9.20;;
20002;SDS011;10162;41.600;23.806;2023-07-20T09:08:09;9.82;;;8.82;;
20002;SDS011;10162;41.600;23.806;2023-07-20T09:13:06;9.75;;;8.80;;
20002;SDS011;10162;41.600;23.806;2023-07-20T09:15:32;11.65;;;10.45;;
20002;SDS011;10162;41.600;23.806;2023-07-20T09:18:00;9.25;;;8.35;;
20002;SDS011;10162;41.600;23.806;2023-07-20T09:22:58;12.10;;;8.93;;
20002;SDS011;10162;41.600;23.806;2023-07-20T09:25:24;10.20;;;8.20;;
20002;SDS011;10162;41.600;23.806;2023-07-20T09:27:52;10.25;;;8.55;;
20002;SDS011;10162;41.600;23.806;2023-07-20T09:30:19;9.63;;;8.48;;
20002;SDS011;10162;41.600;23.806;2023-07-20T09:32:50;11.05;;;8.48;;
20002;SDS011;10162;41.600;23.806;2023-07-20T09:35:16;9.45;;;8.50;;
20002;SDS011;10162;41.600;23.806;2023-07-20T09:38:00;9.73;;;8.73;;
20002;SDS011;10162;41.600;23.806;2023-07-20T09:40:27;8.65;;;7.85;;
20002;SDS011;10162;41.600;23.806;2023-07-20T09:42:54;9.30;;;8.15;;
20002;SDS011;10162;41.600;23.806;2023-07-20T09:45:39;10.02;;;8.73;;
20002;SDS011;10162;41.600;23.806;2023-07-20T09:48:07;10.23;;;8.45;;
20002;SDS011;10162;41.600;23.806;2023-07-20T09:50:49;14.88;;;8.98;;
20002;SDS011;10162;41.600;23.806;2023-07-20T09:53:18;9.48;;;8.57;;
20002;SDS011;10162;41.600;23.806;2023-07-20T09:55:46;9.50;;;8.32;;
20002;SDS011;10162;41.600;23.806;2023-07-20T09:58:15;9.52;;;8.57;;
20002;SDS011;10162;41.600;23.806;2023-07-20T10:00:42;9.65;;;8.27;;
20002;SDS011;10162;41.600;23.806;2023-07-20T10:03:10;10.93;;;9.05;;
20002;SDS011;10162;41.600;23.806;2023-07-20T10:05:43;10.55;;;8.68;;
20002;SDS011;10162;41.600;23.806;2023-07-20T10:08:12;10.65;;;8.57;;
20002;SDS011;10162;41.600;23.806;2023-07-20T10:10:41;9.52;;;8.63;;
20002;SDS011;10162;41.600;23.806;2023-07-20T10:13:20;11.15;;;9.80;;
20002;SDS011;10162;41.600;23.806;2023-07-20T10:15:58;8.70;;;7.90;;
20002;SDS011;10162;41.600;23.806;2023-07-20T10:21:25;9.98;;;8.73;;
20002;SDS011;10162;41.600;23.806;2023-07-20T10:23:51;9.50;;;8.48;;
20002;SDS011;10162;41.600;23.806;2023-07-20T10:26:18;10.85;;;8.70;;
20002;SDS011;10162;41.600;23.806;2023-07-20T10:31:43;8.95;;;8.00;;
20002;SDS011;10162;41.600;23.806;2023-07-20T10:37:04;9.40;;;8.35;;
20002;SDS011;10162;41.600;23.806;2023-07-20T10:42:47;9.93;;;7.72;;
20002;SDS011;10162;41.600;23.806;2023-07-20T10:49:07;8.95;;;8.05;;
20002;SDS011;10162;41.600;23.806;2023-07-20T10:52:36;7.90;;;7.05;;
20002;SDS011;10162;41.600;23.806;2023-07-20T10:55:15;10.70;;;7.93;;
20002;SDS011;10162;41.600;23.806;2023-07-20T10:57:43;8.25;;;7.25;;
20002;SDS011;10162;41.600;23.806;2023-07-20T11:03:26;8.38;;;7.53;;
20002;SDS011;10162;41.600;23.806;2023-07-20T11:09:03;8.13;;;7.32;;
20002;SDS011;10162;41.600;23.806;2023-07-20T11:11:34;11.57;;;7.95;;
20002;SDS011;10162;41.600;23.806;2023-07-20T11:14:02;9.15;;;7.45;;
20002;SDS011;10162;41.600;23.806;2023-07-20T11:16:34;10.15;;;7.70;;
20002;SDS011;10162;41.600;23.806;2023-07-20T11:19:03;8.50;;;6.93;;
20002;SDS011;10162;41.600;23.806;2023-07-20T11:21:38;12.00;;;7.32;;
20002;SDS011;10162;41.600;23.806;2023-07-20T11:24:26;8.80;;;7.50;;
20002;SDS011;10162;41.600;23.806;2023-07-20T11:26:53;8.23;;;7.38;;
20002;SDS011;10162;41.600;23.806;2023-07-20T11:31:50;17.92;;;7.97;;
20002;SDS011;10162;41.600;23.806;2023-07-20T11:34:17;9.02;;;7.70;;
20002;SDS011;10162;41.600;23.806;2023-07-20T11:36:45;8.45;;;7.65;;
20002;SDS011;10162;41.600;23.806;2023-07-20T11:42:22;10.23;;;7.50;;
20002;SDS011;10162;41.600;23.806;2023-07-20T11:44:51;8.45;;;7.65;;
20002;SDS011;10162;41.600;23.806;2023-07-20T11:47:17;8.93;;;8.02;;
20002;SDS011;10162;41.600;23.806;2023-07-20T11:53:25;8.80;;;7.60;;
20002;SDS011;10162;41.600;23.806;2023-07-20T11:55:59;11.75;;;8.40;;
20002;SDS011;10162;41.600;23.806;2023-07-20T11:58:35;8.50;;;7.60;;
20002;SDS011;10162;41.600;23.806;2023-07-20T12:01:01;14.55;;;8.05;;
20002;SDS011;10162;41.600;23.806;2023-07-20T12:03:27;12.93;;;7.90;;
20002;SDS011;10162;41.600;23.806;2023-07-20T12:05:54;11.23;;;7.85;;
20002;SDS011;10162;41.600;23.806;2023-07-20T12:08:20;8.73;;;7.57;;
20002;SDS011;10162;41.600;23.806;2023-07-20T12:10:48;9.55;;;7.32;;
20002;SDS011;10162;41.600;23.806;2023-07-20T12:13:15;8.75;;;7.75;;
20002;SDS011;10162;41.600;23.806;2023-07-20T12:15:52;8.77;;;7.32;;
20002;SDS011;10162;41.600;23.806;2023-07-20T12:18:22;10.82;;;8.13;;
20002;SDS011;10162;41.600;23.806;2023-07-20T12:20:49;9.43;;;7.03;;
20002;SDS011;10162;41.600;23.806;2023-07-20T12:23:25;9.88;;;7.75;;
20002;SDS011;10162;41.600;23.806;2023-07-20T12:25:51;8.98;;;8.02;;
20002;SDS011;10162;41.600;23.806;2023-07-20T12:28:19;8.50;;;7.70;;
20002;SDS011;10162;41.600;23.806;2023-07-20T12:30:45;10.30;;;7.45;;
20002;SDS011;10162;41.600;23.806;2023-07-20T12:33:14;13.18;;;7.65;;
20002;SDS011;10162;41.600;23.806;2023-07-20T12:35:40;11.00;;;7.75;;
20002;SDS011;10162;41.600;23.806;2023-07-20T12:38:09;13.23;;;7.80;;
20002;SDS011;10162;41.600;23.806;2023-07-20T12:40:51;12.88;;;7.25;;
20002;SDS011;10162;41.600;23.806;2023-07-20T12:43:44;11.00;;;7.55;;
20002;SDS011;10162;41.600;23.806;2023-07-20T12:46:11;11.52;;;7.30;;
20002;SDS011;10162;41.600;23.806;2023-07-20T12:48:44;7.93;;;7.22;;
20002;SDS011;10162;41.600;23.806;2023-07-20T12:54:15;11.48;;;6.95;;
20002;SDS011;10162;41.600;23.806;2023-07-20T12:56:40;10.75;;;6.68;;
20002;SDS011;10162;41.600;23.806;2023-07-20T13:01:58;10.35;;;6.82;;
20002;SDS011;10162;41.600;23.806;2023-07-20T13:04:24;8.10;;;6.30;;
20002;SDS011;10162;41.600;23.806;2023-07-20T13:06:51;10.73;;;7.05;;
20002;SDS011;10162;41.600;23.806;2023-07-20T13:12:02;9.60;;;6.82;;
20002;SDS011;10162;41.600;23.806;2023-07-20T13:14:28;8.18;;;6.65;;
20002;SDS011;10162;41.600;23.806;2023-07-20T13:16:55;9.02;;;6.30;;
20002;SDS011;10162;41.600;23.806;2023-07-20T13:19:34;10.48;;;7.03;;
20002;SDS011;10162;41.600;23.806;2023-07-20T13:22:01;13.43;;;7.28;;
20002;SDS011;10162;41.600;23.806;2023-07-20T13:27:12;9.98;;;6.55;;
20002;SDS011;10162;41.600;23.806;2023-07-20T13:32:24;9.02;;;8.00;;
20002;SDS011;10162;41.600;23.806;2023-07-20T13:34:51;10.57;;;6.95;;
20002;SDS011;10162;41.600;23.806;2023-07-20T13:37:16;8.63;;;6.78;;
20002;SDS011;10162;41.600;23.806;2023-07-20T13:42:15;13.88;;;6.45;;
20002;SDS011;10162;41.600;23.806;2023-07-20T13:44:41;10.50;;;6.47;;
20002;SDS011;10162;41.600;23.806;2023-07-20T13:47:08;11.15;;;6.57;;
20002;SDS011;10162;41.600;23.806;2023-07-20T13:52:09;13.38;;;6.82;;
20002;SDS011;10162;41.600;23.806;2023-07-20T13:54:35;8.52;;;6.72;;
20002;SDS011;10162;41.600;23.806;2023-07-20T14:02:53;13.07;;;7.10;;
20002;SDS011;10162;41.600;23.806;2023-07-20T14:05:18;12.20;;;6.47;;
20002;SDS011;10162;41.600;23.806;2023-07-20T14:07:44;12.23;;;6.68;;
20002;SDS011;10162;41.600;23.806;2023-07-20T14:10:16;11.75;;;6.88;;
20002;SDS011;10162;41.600;23.806;2023-07-20T14:12:43;9.48;;;6.72;;
20002;SDS011;10162;41.600;23.806;2023-07-20T14:15:19;11.98;;;6.70;;
20002;SDS011;10162;41.600;23.806;2023-07-20T14:18:04;6.85;;;6.13;;
20002;SDS011;10162;41.600;23.806;2023-07-20T14:20:36;7.65;;;6.60;;
20002;SDS011;10162;41.600;23.806;2023-07-20T14:23:02;11.65;;;6.60;;
20002;SDS011;10162;41.600;23.806;2023-07-20T14:25:27;9.13;;;6.40;;
20002;SDS011;10162;41.600;23.806;2023-07-20T14:27:53;7.90;;;6.40;;
20002;SDS011;10162;41.600;23.806;2023-07-20T14:32:56;10.57;;;6.45;;
20002;SDS011;10162;41.600;23.806;2023-07-20T14:35:31;17.48;;;6.85;;
20002;SDS011;10162;41.600;23.806;2023-07-20T14:37:56;11.68;;;6.93;;
20002;SDS011;10162;41.600;23.806;2023-07-20T14:42:52;17.27;;;6.93;;
20002;SDS011;10162;41.600;23.806;2023-07-20T14:45:18;8.00;;;6.60;;
20002;SDS011;10162;41.600;23.806;2023-07-20T14:47:44;12.02;;;7.30;;
20002;SDS011;10162;41.600;23.806;2023-07-20T14:50:11;9.45;;;7.05;;
20002;SDS011;10162;41.600;23.806;2023-07-20T14:52:37;10.00;;;6.60;;
20002;SDS011;10162;41.600;23.806;2023-07-20T14:55:03;6.65;;;6.03;;
20002;SDS011;10162;41.600;23.806;2023-07-20T14:57:29;10.98;;;6.55;;
20002;SDS011;10162;41.600;23.806;2023-07-20T15:03:19;9.02;;;6.53;;
20002;SDS011;10162;41.600;23.806;2023-07-20T15:05:44;7.78;;;6.10;;
20002;SDS011;10162;41.600;23.806;2023-07-20T15:08:10;16.33;;;6.97;;
20002;SDS011;10162;41.600;23.806;2023-07-20T15:10:36;10.52;;;6.22;;
20002;SDS011;10162;41.600;23.806;2023-07-20T15:13:03;12.88;;;7.40;;
20002;SDS011;10162;41.600;23.806;2023-07-20T15:15:29;14.13;;;7.32;;
20002;SDS011;10162;41.600;23.806;2023-07-20T15:17:55;9.45;;;6.28;;
20002;SDS011;10162;41.600;23.806;2023-07-20T15:20:31;10.50;;;6.75;;
20002;SDS011;10162;41.600;23.806;2023-07-20T15:22:59;11.88;;;6.75;;
20002;SDS011;10162;41.600;23.806;2023-07-20T15:27:55;10.38;;;7.00;;
20002;SDS011;10162;41.600;23.806;2023-07-20T15:30:33;7.22;;;6.07;;
20002;SDS011;10162;41.600;23.806;2023-07-20T15:32:59;9.50;;;6.90;;
20002;SDS011;10162;41.600;23.806;2023-07-20T15:35:25;11.38;;;6.90;;
20002;SDS011;10162;41.600;23.806;2023-07-20T15:37:52;13.95;;;7.15;;
20002;SDS011;10162;41.600;23.806;2023-07-20T15:40:27;9.20;;;6.75;;
20002;SDS011;10162;41.600;23.806;2023-07-20T15:42:54;7.28;;;6.03;;
20002;SDS011;10162;41.600;23.806;2023-07-20T15:45:20;12.80;;;7.40;;
20002;SDS011;10162;41.600;23.806;2023-07-20T15:47:46;10.68;;;6.88;;
20002;SDS011;10162;41.600;23.806;2023-07-20T15:50:12;10.65;;;7.07;;
20002;SDS011;10162;41.600;23.806;2023-07-20T15:52:38;8.95;;;7.28;;
20002;SDS011;10162;41.600;23.806;2023-07-20T15:55:04;16.23;;;7.57;;
20002;SDS011;10162;41.600;23.806;2023-07-20T15:57:30;13.40;;;6.95;;
20002;SDS011;10162;41.600;23.806;2023-07-20T16:02:38;20.05;;;9.88;;
20002;SDS011;10162;41.600;23.806;2023-07-20T16:05:04;13.85;;;6.85;;
20002;SDS011;10162;41.600;23.806;2023-07-20T16:07:31;13.05;;;7.35;;
20002;SDS011;10162;41.600;23.806;2023-07-20T16:09:59;16.05;;;9.05;;
20002;SDS011;10162;41.600;23.806;2023-07-20T16:12:27;15.30;;;9.57;;
20002;SDS011;10162;41.600;23.806;2023-07-20T16:14:56;11.10;;;7.32;;
20002;SDS011;10162;41.600;23.806;2023-07-20T16:17:21;10.93;;;7.10;;
20002;SDS011;10162;41.600;23.806;2023-07-20T16:22:42;9.27;;;6.05;;
20002;SDS011;10162;41.600;23.806;2023-07-20T16:25:09;35.85;;;11.57;;
20002;SDS011;10162;41.600;23.806;2023-07-20T16:27:37;27.42;;;14.57;;
20002;SDS011;10162;41.600;23.806;2023-07-20T16:30:03;11.50;;;7.05;;
20002;SDS011;10162;41.600;23.806;2023-07-20T16:32:29;24.02;;;12.63;;
20002;SDS011;10162;41.600;23.806;2023-07-20T16:34:55;11.30;;;6.68;;
20002;SDS011;10162;41.600;23.806;2023-07-20T16:37:21;11.23;;;6.30;;
20002;SDS011;10162;41.600;23.806;2023-07-20T16:42:57;8.90;;;6.55;;
20002;SDS011;10162;41.600;23.806;2023-07-20T16:45:23;12.32;;;6.75;;
20002;SDS011;10162;41.600;23.806;2023-07-20T16:47:49;9.57;;;6.57;;
20002;SDS011;10162;41.600;23.806;2023-07-20T16:53:18;15.63;;;6.68;;
20002;SDS011;10162;41.600;23.806;2023-07-20T16:55:47;16.10;;;6.90;;
20002;SDS011;10162;41.600;23.806;2023-07-20T16:58:19;11.52;;;6.95;;
20002;SDS011;10162;41.600;23.806;2023-07-20T17:00:46;12.27;;;7.53;;
20002;SDS011;10162;41.600;23.806;2023-07-20T17:03:14;7.43;;;6.15;;
20002;SDS011;10162;41.600;23.806;2023-07-20T17:05:43;10.25;;;7.28;;
20002;SDS011;10162;41.600;23.806;2023-07-20T17:08:09;10.57;;;6.68;;
20002;SDS011;10162;41.600;23.806;2023-07-20T17:13:26;13.18;;;6.85;;
20002;SDS011;10162;41.600;23.806;2023-07-20T17:15:52;11.05;;;6.78;;
20002;SDS011;10162;41.600;23.806;2023-07-20T17:18:18;9.30;;;6.60;;
20002;SDS011;10162;41.600;23.806;2023-07-20T17:20:44;13.70;;;7.18;;
20002;SDS011;10162;41.600;23.806;2023-07-20T17:23:11;8.45;;;6.53;;
20002;SDS011;10162;41.600;23.806;2023-07-20T17:25:41;9.40;;;5.97;;
20002;SDS011;10162;41.600;23.806;2023-07-20T17:28:11;12.80;;;6.57;;
20002;SDS011;10162;41.600;23.806;2023-07-20T17:34:31;9.88;;;7.30;;
20002;SDS011;10162;41.600;23.806;2023-07-20T17:36:58;8.20;;;6.72;;
20002;SDS011;10162;41.600;23.806;2023-07-20T17:43:18;9.65;;;6.75;;
20002;SDS011;10162;41.600;23.806;2023-07-20T17:45:48;17.10;;;7.43;;
20002;SDS011;10162;41.600;23.806;2023-07-20T17:48:15;9.75;;;6.63;;
20002;SDS011;10162;41.600;23.806;2023-07-20T17:50:43;8.27;;;5.78;;
20002;SDS011;10162;41.600;23.806;2023-07-20T17:53:11;9.10;;;6.30;;
20002;SDS011;10162;41.600;23.806;2023-07-20T17:55:37;11.43;;;7.18;;
20002;SDS011;10162;41.600;23.806;2023-07-20T17:58:03;8.07;;;6.45;;
20002;SDS011;10162;41.600;23.806;2023-07-20T18:00:35;9.23;;;6.55;;
20002;SDS011;10162;41.600;23.806;2023-07-20T18:03:01;11.95;;;6.60;;
20002;SDS011;10162;41.600;23.806;2023-07-20T18:05:27;11.15;;;5.97;;
20002;SDS011;10162;41.600;23.806;2023-07-20T18:07:53;12.77;;;6.65;;
20002;SDS011;10162;41.600;23.806;2023-07-20T18:10:20;11.98;;;6.57;;
20002;SDS011;10162;41.600;23.806;2023-07-20T18:12:46;12.95;;;6.75;;
20002;SDS011;10162;41.600;23.806;2023-07-20T18:15:12;10.80;;;6.88;;
20002;SDS011;10162;41.600;23.806;2023-07-20T18:17:38;10.38;;;6.72;;
20002;SDS011;10162;41.600;23.806;2023-07-20T18:22:34;17.52;;;7.03;;
20002;SDS011;10162;41.600;23.806;2023-07-20T18:25:01;9.98;;;6.97;;
20002;SDS011;10162;41.600;23.806;2023-07-20T18:27:27;11.70;;;6.25;;
20002;SDS011;10162;41.600;23.806;2023-07-20T18:32:30;14.48;;;7.25;;
20002;SDS011;10162;41.600;23.806;2023-07-20T18:34:55;15.25;;;7.00;;